sensor_id;sensor_type;location;lat;lon;timestamp;P1;durP1;ratioP1;P2;durP2;ratioP2
21837;SDS011;11081;45.946;6.140;2023-04-19T00:00:50;6.13;;;4.13;;
21837;SDS011;11081;45.946;6.140;2023-04-19T00:03:18;7.82;;;4.20;;
21837;SDS011;11081;45.946;6.140;2023-04-19T00:05:46;9.75;;;4.43;;
21837;SDS011;11081;45.946;6.140;2023-04-19T00:08:14;6.22;;;4.68;;
21837;SDS011;11081;45.946;6.140;2023-04-19T00:10:43;8.98;;;4.22;;
21837;SDS011;11081;45.946;6.140;2023-04-19T00:13:11;5.82;;;4.57;;
21837;SDS011;11081;45.946;6.140;2023-04-19T00:15:39;5.50;;;4.65;;
21837;SDS011;11081;45.946;6.140;2023-04-19T00:18:07;7.20;;;4.60;;
21837;SDS011;11081;45.946;6.140;2023-04-19T00:20:36;6.03;;;4.63;;
21837;SDS011;11081;45.946;6.140;2023-04-19T00:23:05;7.18;;;4.70;;
21837;SDS011;11081;45.946;6.140;2023-04-19T00:25:33;6.18;;;5.00;;
21837;SDS011;11081;45.946;6.140;2023-04-19T00:28:02;6.93;;;4.70;;
21837;SDS011;11081;45.946;6.140;2023-04-19T00:30:31;7.28;;;4.70;;
21837;SDS011;11081;45.946;6.140;2023-04-19T00:32:59;5.90;;;4.50;;
21837;SDS011;11081;45.946;6.140;2023-04-19T00:35:27;4.78;;;4.13;;
21837;SDS011;11081;45.946;6.140;2023-04-19T00:37:54;5.88;;;4.18;;
21837;SDS011;11081;45.946;6.140;2023-04-19T00:40:23;5.18;;;4.03;;
21837;SDS011;11081;45.946;6.140;2023-04-19T00:42:50;5.32;;;4.28;;
21837;SDS011;11081;45.946;6.140;2023-04-19T00:45:20;7.78;;;4.55;;
21837;SDS011;11081;45.946;6.140;2023-04-19T00:47:49;8.13;;;5.25;;
21837;SDS011;11081;45.946;6.140;2023-04-19T00:50:18;5.90;;;4.85;;
21837;SDS011;11081;45.946;6.140;2023-04-19T00:52:46;8.32;;;5.15;;
21837;SDS011;11081;45.946;6.140;2023-04-19T00:55:15;6.57;;;4.07;;
21837;SDS011;11081;45.946;6.140;2023-04-19T00:57:42;4.75;;;3.85;;
21837;SDS011;11081;45.946;6.140;2023-04-19T01:00:11;5.18;;;4.20;;
21837;SDS011;11081;45.946;6.140;2023-04-19T01:02:41;4.93;;;3.95;;
21837;SDS011;11081;45.946;6.140;2023-04-19T01:05:10;5.72;;;4.50;;
21837;SDS011;11081;45.946;6.140;2023-04-19T01:07:38;5.32;;;4.07;;
21837;SDS011;11081;45.946;6.140;2023-04-19T01:10:06;5.47;;;4.20;;
21837;SDS011;11081;45.946;6.140;2023-04-19T01:12:35;4.75;;;4.10;;
21837;SDS011;11081;45.946;6.140;2023-04-19T01:15:04;5.80;;;4.80;;
21837;SDS011;11081;45.946;6.140;2023-04-19T01:17:32;7.35;;;5.30;;
21837;SDS011;11081;45.946;6.140;2023-04-19T01:20:05;9.75;;;4.85;;
21837;SDS011;11081;45.946;6.140;2023-04-19T01:22:36;8.65;;;5.57;;
21837;SDS011;11081;45.946;6.140;2023-04-19T01:25:06;7.22;;;4.93;;
21837;SDS011;11081;45.946;6.140;2023-04-19T01:27:34;7.63;;;5.45;;
21837;SDS011;11081;45.946;6.140;2023-04-19T01:30:03;9.57;;;5.50;;
21837;SDS011;11081;45.946;6.140;2023-04-19T01:32:31;8.00;;;5.85;;
21837;SDS011;11081;45.946;6.140;2023-04-19T01:34:59;8.65;;;5.68;;
21837;SDS011;11081;45.946;6.140;2023-04-19T01:37:28;9.00;;;5.80;;
21837;SDS011;11081;45.946;6.140;2023-04-19T01:39:58;8.38;;;5.63;;
21837;SDS011;11081;45.946;6.140;2023-04-19T01:42:26;6.90;;;5.20;;
21837;SDS011;11081;45.946;6.140;2023-04-19T01:44:54;6.40;;;4.75;;
21837;SDS011;11081;45.946;6.140;2023-04-19T01:47:22;7.10;;;4.90;;
21837;SDS011;11081;45.946;6.140;2023-04-19T01:49:50;6.45;;;5.07;;
21837;SDS011;11081;45.946;6.140;2023-04-19T01:52:18;7.82;;;5.00;;
21837;SDS011;11081;45.946;6.140;2023-04-19T01:54:47;6.70;;;4.43;;
21837;SDS011;11081;45.946;6.140;2023-04-19T01:57:16;6.38;;;5.18;;
21837;SDS011;11081;45.946;6.140;2023-04-19T01:59:46;8.00;;;5.47;;
21837;SDS011;11081;45.946;6.140;2023-04-19T02:02:14;5.35;;;4.15;;
21837;SDS011;11081;45.946;6.140;2023-04-19T02:04:42;6.97;;;4.85;;
21837;SDS011;11081;45.946;6.140;2023-04-19T02:07:10;5.78;;;4.55;;
21837;SDS011;11081;45.946;6.140;2023-04-19T02:09:38;5.72;;;4.75;;
21837;SDS011;11081;45.946;6.140;2023-04-19T02:12:06;6.90;;;4.80;;
21837;SDS011;11081;45.946;6.140;2023-04-19T02:14:35;6.50;;;5.13;;
21837;SDS011;11081;45.946;6.140;2023-04-19T02:17:03;5.78;;;4.38;;
21837;SDS011;11081;45.946;6.140;2023-04-19T02:19:31;6.68;;;4.38;;
21837;SDS011;11081;45.946;6.140;2023-04-19T02:21:59;7.93;;;4.72;;
21837;SDS011;11081;45.946;6.140;2023-04-19T02:24:27;6.40;;;5.05;;
21837;SDS011;11081;45.946;6.140;2023-04-19T02:26:55;6.70;;;5.00;;
21837;SDS011;11081;45.946;6.140;2023-04-19T02:29:23;6.00;;;4.53;;
21837;SDS011;11081;45.946;6.140;2023-04-19T02:31:53;7.07;;;5.38;;
21837;SDS011;11081;45.946;6.140;2023-04-19T02:34:21;4.63;;;4.07;;
21837;SDS011;11081;45.946;6.140;2023-04-19T02:36:48;5.80;;;4.50;;
21837;SDS011;11081;45.946;6.140;2023-04-19T02:39:17;8.75;;;5.22;;
21837;SDS011;11081;45.946;6.140;2023-04-19T02:41:44;6.75;;;4.78;;
21837;SDS011;11081;45.946;6.140;2023-04-19T02:44:12;6.80;;;4.30;;
21837;SDS011;11081;45.946;6.140;2023-04-19T02:46:46;5.05;;;4.35;;
21837;SDS011;11081;45.946;6.140;2023-04-19T02:49:16;9.13;;;4.65;;
21837;SDS011;11081;45.946;6.140;2023-04-19T02:51:44;5.70;;;4.13;;
21837;SDS011;11081;45.946;6.140;2023-04-19T02:54:13;5.95;;;4.53;;
21837;SDS011;11081;45.946;6.140;2023-04-19T02:56:43;5.93;;;4.43;;
21837;SDS011;11081;45.946;6.140;2023-04-19T02:59:11;6.25;;;4.53;;
21837;SDS011;11081;45.946;6.140;2023-04-19T03:01:39;6.55;;;5.22;;
21837;SDS011;11081;45.946;6.140;2023-04-19T03:04:08;5.43;;;4.43;;
21837;SDS011;11081;45.946;6.140;2023-04-19T03:06:39;5.78;;;4.47;;
21837;SDS011;11081;45.946;6.140;2023-04-19T03:09:07;5.55;;;4.40;;
21837;SDS011;11081;45.946;6.140;2023-04-19T03:11:35;6.32;;;4.78;;
21837;SDS011;11081;45.946;6.140;2023-04-19T03:14:04;7.72;;;5.57;;
21837;SDS011;11081;45.946;6.140;2023-04-19T03:16:32;6.72;;;5.00;;
21837;SDS011;11081;45.946;6.140;2023-04-19T03:19:00;6.82;;;5.30;;
21837;SDS011;11081;45.946;6.140;2023-04-19T03:21:33;8.63;;;5.57;;
21837;SDS011;11081;45.946;6.140;2023-04-19T03:24:02;7.35;;;4.93;;
21837;SDS011;11081;45.946;6.140;2023-04-19T03:26:31;7.82;;;5.32;;
21837;SDS011;11081;45.946;6.140;2023-04-19T03:29:00;9.10;;;5.57;;
21837;SDS011;11081;45.946;6.140;2023-04-19T03:31:41;8.60;;;5.25;;
21837;SDS011;11081;45.946;6.140;2023-04-19T03:34:11;7.65;;;5.40;;
21837;SDS011;11081;45.946;6.140;2023-04-19T03:36:43;10.80;;;6.35;;
21837;SDS011;11081;45.946;6.140;2023-04-19T03:39:12;11.70;;;6.25;;
21837;SDS011;11081;45.946;6.140;2023-04-19T03:41:43;9.32;;;6.88;;
21837;SDS011;11081;45.946;6.140;2023-04-19T03:44:22;9.98;;;7.07;;
21837;SDS011;11081;45.946;6.140;2023-04-19T03:46:51;9.98;;;7.22;;
21837;SDS011;11081;45.946;6.140;2023-04-19T03:49:23;11.80;;;7.07;;
21837;SDS011;11081;45.946;6.140;2023-04-19T03:52:02;11.30;;;8.10;;
21837;SDS011;11081;45.946;6.140;2023-04-19T03:54:33;13.38;;;7.97;;
21837;SDS011;11081;45.946;6.140;2023-04-19T03:57:03;9.38;;;7.00;;
21837;SDS011;11081;45.946;6.140;2023-04-19T03:59:35;10.27;;;7.38;;
21837;SDS011;11081;45.946;6.140;2023-04-19T04:02:04;9.68;;;6.85;;
21837;SDS011;11081;45.946;6.140;2023-04-19T04:04:32;9.80;;;7.03;;
21837;SDS011;11081;45.946;6.140;2023-04-19T04:07:01;9.63;;;7.00;;
21837;SDS011;11081;45.946;6.140;2023-04-19T04:09:29;10.82;;;7.50;;
21837;SDS011;11081;45.946;6.140;2023-04-19T04:11:59;11.82;;;7.35;;
21837;SDS011;11081;45.946;6.140;2023-04-19T04:14:28;11.65;;;7.75;;
21837;SDS011;11081;45.946;6.140;2023-04-19T04:16:58;9.43;;;7.50;;
21837;SDS011;11081;45.946;6.140;2023-04-19T04:19:26;10.95;;;7.93;;
21837;SDS011;11081;45.946;6.140;2023-04-19T04:21:54;11.98;;;7.38;;
21837;SDS011;11081;45.946;6.140;2023-04-19T04:24:23;12.70;;;8.77;;
21837;SDS011;11081;45.946;6.140;2023-04-19T04:27:13;11.43;;;8.63;;
21837;SDS011;11081;45.946;6.140;2023-04-19T04:29:50;12.52;;;8.30;;
21837;SDS011;11081;45.946;6.140;2023-04-19T04:32:19;14.25;;;9.10;;
21837;SDS011;11081;45.946;6.140;2023-04-19T04:34:53;13.50;;;8.57;;
21837;SDS011;11081;45.946;6.140;2023-04-19T04:37:31;12.18;;;8.68;;
21837;SDS011;11081;45.946;6.140;2023-04-19T04:39:59;11.38;;;8.48;;
21837;SDS011;11081;45.946;6.140;2023-04-19T04:42:32;11.23;;;8.05;;
21837;SDS011;11081;45.946;6.140;2023-04-19T04:45:01;11.10;;;8.38;;
21837;SDS011;11081;45.946;6.140;2023-04-19T04:47:31;14.15;;;8.38;;
21837;SDS011;11081;45.946;6.140;2023-04-19T04:50:03;13.93;;;8.45;;
21837;SDS011;11081;45.946;6.140;2023-04-19T04:52:31;15.57;;;9.05;;
21837;SDS011;11081;45.946;6.140;2023-04-19T04:55:12;13.10;;;9.00;;
21837;SDS011;11081;45.946;6.140;2023-04-19T04:57:44;10.88;;;7.97;;
21837;SDS011;11081;45.946;6.140;2023-04-19T05:00:18;13.07;;;9.07;;
21837;SDS011;11081;45.946;6.140;2023-04-19T05:02:55;13.75;;;8.70;;
21837;SDS011;11081;45.946;6.140;2023-04-19T05:05:24;11.20;;;8.25;;
21837;SDS011;11081;45.946;6.140;2023-04-19T05:07:54;13.38;;;9.25;;
21837;SDS011;11081;45.946;6.140;2023-04-19T05:10:22;11.45;;;8.70;;
21837;SDS011;11081;45.946;6.140;2023-04-19T05:12:52;12.32;;;8.82;;
21837;SDS011;11081;45.946;6.140;2023-04-19T05:15:20;12.90;;;9.05;;
21837;SDS011;11081;45.946;6.140;2023-04-19T05:17:52;13.40;;;8.75;;
21837;SDS011;11081;45.946;6.140;2023-04-19T05:20:21;13.38;;;8.45;;
21837;SDS011;11081;45.946;6.140;2023-04-19T05:22:57;12.52;;;8.98;;
21837;SDS011;11081;45.946;6.140;2023-04-19T05:25:26;11.77;;;8.55;;
21837;SDS011;11081;45.946;6.140;2023-04-19T05:27:56;13.88;;;8.90;;
21837;SDS011;11081;45.946;6.140;2023-04-19T05:30:29;12.68;;;8.90;;
21837;SDS011;11081;45.946;6.140;2023-04-19T05:32:57;13.23;;;9.32;;
21837;SDS011;11081;45.946;6.140;2023-04-19T05:35:26;12.82;;;8.13;;
21837;SDS011;11081;45.946;6.140;2023-04-19T05:37:54;13.40;;;9.07;;
21837;SDS011;11081;45.946;6.140;2023-04-19T05:40:23;12.70;;;9.27;;
21837;SDS011;11081;45.946;6.140;2023-04-19T05:42:51;13.55;;;8.93;;
21837;SDS011;11081;45.946;6.140;2023-04-19T05:45:21;14.57;;;9.80;;
21837;SDS011;11081;45.946;6.140;2023-04-19T05:47:49;15.25;;;9.60;;
21837;SDS011;11081;45.946;6.140;2023-04-19T05:50:37;14.38;;;8.85;;
21837;SDS011;11081;45.946;6.140;2023-04-19T05:53:24;13.93;;;9.43;;
21837;SDS011;11081;45.946;6.140;2023-04-19T05:55:54;13.68;;;9.75;;
21837;SDS011;11081;45.946;6.140;2023-04-19T05:58:22;12.63;;;9.18;;
21837;SDS011;11081;45.946;6.140;2023-04-19T06:00:51;13.50;;;9.77;;
21837;SDS011;11081;45.946;6.140;2023-04-19T06:03:21;15.52;;;10.23;;
21837;SDS011;11081;45.946;6.140;2023-04-19T06:05:51;18.58;;;11.18;;
21837;SDS011;11081;45.946;6.140;2023-04-19T06:08:20;20.83;;;12.98;;
21837;SDS011;11081;45.946;6.140;2023-04-19T06:10:48;20.20;;;11.52;;
21837;SDS011;11081;45.946;6.140;2023-04-19T06:13:22;20.83;;;12.18;;
21837;SDS011;11081;45.946;6.140;2023-04-19T06:15:52;20.33;;;12.68;;
21837;SDS011;11081;45.946;6.140;2023-04-19T06:18:20;28.83;;;14.55;;
21837;SDS011;11081;45.946;6.140;2023-04-19T06:20:48;27.73;;;14.63;;
21837;SDS011;11081;45.946;6.140;2023-04-19T06:23:16;30.50;;;15.30;;
21837;SDS011;11081;45.946;6.140;2023-04-19T06:25:44;25.73;;;12.95;;
21837;SDS011;11081;45.946;6.140;2023-04-19T06:28:14;21.35;;;12.18;;
21837;SDS011;11081;45.946;6.140;2023-04-19T06:30:42;24.05;;;12.95;;
21837;SDS011;11081;45.946;6.140;2023-04-19T06:33:11;27.70;;;13.10;;
21837;SDS011;11081;45.946;6.140;2023-04-19T06:35:39;21.52;;;12.40;;
21837;SDS011;11081;45.946;6.140;2023-04-19T06:38:07;21.77;;;13.23;;
21837;SDS011;11081;45.946;6.140;2023-04-19T06:40:35;19.73;;;12.25;;
21837;SDS011;11081;45.946;6.140;2023-04-19T06:43:03;23.02;;;12.70;;
21837;SDS011;11081;45.946;6.140;2023-04-19T06:45:31;24.48;;;12.77;;
21837;SDS011;11081;45.946;6.140;2023-04-19T06:47:59;25.02;;;13.93;;
21837;SDS011;11081;45.946;6.140;2023-04-19T06:50:29;18.70;;;11.95;;
21837;SDS011;11081;45.946;6.140;2023-04-19T06:52:57;20.52;;;12.45;;
21837;SDS011;11081;45.946;6.140;2023-04-19T06:55:25;20.77;;;11.70;;
21837;SDS011;11081;45.946;6.140;2023-04-19T06:57:53;24.08;;;12.68;;
21837;SDS011;11081;45.946;6.140;2023-04-19T07:00:21;19.50;;;11.30;;
21837;SDS011;11081;45.946;6.140;2023-04-19T07:02:49;16.30;;;10.25;;
21837;SDS011;11081;45.946;6.140;2023-04-19T07:05:18;17.35;;;10.23;;
21837;SDS011;11081;45.946;6.140;2023-04-19T07:07:47;16.92;;;9.75;;
21837;SDS011;11081;45.946;6.140;2023-04-19T07:10:15;16.13;;;9.93;;
21837;SDS011;11081;45.946;6.140;2023-04-19T07:12:43;17.23;;;9.05;;
21837;SDS011;11081;45.946;6.140;2023-04-19T07:15:11;17.30;;;9.48;;
21837;SDS011;11081;45.946;6.140;2023-04-19T07:17:39;14.40;;;8.52;;
21837;SDS011;11081;45.946;6.140;2023-04-19T07:20:07;12.93;;;8.13;;
21837;SDS011;11081;45.946;6.140;2023-04-19T07:22:36;13.95;;;7.70;;
21837;SDS011;11081;45.946;6.140;2023-04-19T07:25:06;14.70;;;8.68;;
21837;SDS011;11081;45.946;6.140;2023-04-19T07:27:34;13.05;;;8.40;;
21837;SDS011;11081;45.946;6.140;2023-04-19T07:30:02;16.48;;;8.93;;
21837;SDS011;11081;45.946;6.140;2023-04-19T07:32:31;17.70;;;9.75;;
21837;SDS011;11081;45.946;6.140;2023-04-19T07:34:59;13.98;;;9.48;;
21837;SDS011;11081;45.946;6.140;2023-04-19T07:37:28;13.95;;;9.05;;
21837;SDS011;11081;45.946;6.140;2023-04-19T07:39:56;14.43;;;9.60;;
21837;SDS011;11081;45.946;6.140;2023-04-19T07:42:28;14.18;;;9.30;;
21837;SDS011;11081;45.946;6.140;2023-04-19T07:44:56;14.10;;;9.00;;
21837;SDS011;11081;45.946;6.140;2023-04-19T07:47:24;17.52;;;9.50;;
21837;SDS011;11081;45.946;6.140;2023-04-19T07:49:53;14.15;;;9.88;;
21837;SDS011;11081;45.946;6.140;2023-04-19T07:52:22;11.10;;;8.27;;
21837;SDS011;11081;45.946;6.140;2023-04-19T07:54:50;12.02;;;8.18;;
21837;SDS011;11081;45.946;6.140;2023-04-19T07:57:17;13.20;;;9.50;;
21837;SDS011;11081;45.946;6.140;2023-04-19T07:59:47;12.43;;;8.38;;
21837;SDS011;11081;45.946;6.140;2023-04-19T08:02:15;11.93;;;8.35;;
21837;SDS011;11081;45.946;6.140;2023-04-19T08:04:44;10.55;;;7.65;;
21837;SDS011;11081;45.946;6.140;2023-04-19T08:07:15;12.13;;;8.40;;
21837;SDS011;11081;45.946;6.140;2023-04-19T08:09:43;12.45;;;8.65;;
21837;SDS011;11081;45.946;6.140;2023-04-19T08:12:11;13.35;;;8.98;;
21837;SDS011;11081;45.946;6.140;2023-04-19T08:14:59;11.88;;;8.05;;
21837;SDS011;11081;45.946;6.140;2023-04-19T08:17:47;13.93;;;8.07;;
21837;SDS011;11081;45.946;6.140;2023-04-19T08:20:15;11.60;;;8.20;;
21837;SDS011;11081;45.946;6.140;2023-04-19T08:22:44;13.15;;;9.38;;
21837;SDS011;11081;45.946;6.140;2023-04-19T08:25:13;13.68;;;9.00;;
21837;SDS011;11081;45.946;6.140;2023-04-19T08:27:42;13.07;;;8.63;;
21837;SDS011;11081;45.946;6.140;2023-04-19T08:30:11;12.10;;;8.25;;
21837;SDS011;11081;45.946;6.140;2023-04-19T08:32:39;11.80;;;7.65;;
21837;SDS011;11081;45.946;6.140;2023-04-19T08:35:08;11.82;;;8.55;;
21837;SDS011;11081;45.946;6.140;2023-04-19T08:37:36;13.35;;;8.32;;
21837;SDS011;11081;45.946;6.140;2023-04-19T08:40:04;14.80;;;8.75;;
21837;SDS011;11081;45.946;6.140;2023-04-19T08:42:33;11.18;;;8.30;;
21837;SDS011;11081;45.946;6.140;2023-04-19T08:45:03;11.15;;;8.25;;
21837;SDS011;11081;45.946;6.140;2023-04-19T08:47:38;13.07;;;7.80;;
21837;SDS011;11081;45.946;6.140;2023-04-19T08:50:10;11.50;;;7.63;;
21837;SDS011;11081;45.946;6.140;2023-04-19T08:52:58;10.32;;;8.25;;
21837;SDS011;11081;45.946;6.140;2023-04-19T08:55:46;10.98;;;8.02;;
21837;SDS011;11081;45.946;6.140;2023-04-19T08:58:18;11.73;;;7.47;;
21837;SDS011;11081;45.946;6.140;2023-04-19T09:01:06;12.70;;;8.20;;
21837;SDS011;11081;45.946;6.140;2023-04-19T09:03:53;11.55;;;8.00;;
21837;SDS011;11081;45.946;6.140;2023-04-19T09:06:41;12.02;;;8.77;;
21837;SDS011;11081;45.946;6.140;2023-04-19T09:09:18;12.35;;;8.50;;
21837;SDS011;11081;45.946;6.140;2023-04-19T09:11:50;13.15;;;9.00;;
21837;SDS011;11081;45.946;6.140;2023-04-19T09:14:20;13.63;;;8.73;;
21837;SDS011;11081;45.946;6.140;2023-04-19T09:16:49;11.00;;;7.60;;
21837;SDS011;11081;45.946;6.140;2023-04-19T09:19:19;13.52;;;8.85;;
21837;SDS011;11081;45.946;6.140;2023-04-19T09:21:51;11.55;;;7.97;;
21837;SDS011;11081;45.946;6.140;2023-04-19T09:27:08;11.63;;;8.20;;
21837;SDS011;11081;45.946;6.140;2023-04-19T09:29:37;12.32;;;8.40;;
21837;SDS011;11081;45.946;6.140;2023-04-19T09:32:05;10.27;;;7.57;;
21837;SDS011;11081;45.946;6.140;2023-04-19T09:34:35;12.95;;;7.93;;
21837;SDS011;11081;45.946;6.140;2023-04-19T09:37:18;15.00;;;7.88;;
21837;SDS011;11081;45.946;6.140;2023-04-19T09:40:20;13.50;;;7.30;;
21837;SDS011;11081;45.946;6.140;2023-04-19T09:42:48;14.90;;;7.50;;
21837;SDS011;11081;45.946;6.140;2023-04-19T09:45:19;11.13;;;7.57;;
21837;SDS011;11081;45.946;6.140;2023-04-19T09:47:59;10.80;;;7.47;;
21837;SDS011;11081;45.946;6.140;2023-04-19T09:50:30;9.43;;;6.95;;
21837;SDS011;11081;45.946;6.140;2023-04-19T09:53:04;11.63;;;8.07;;
21837;SDS011;11081;45.946;6.140;2023-04-19T09:55:33;11.57;;;7.22;;
21837;SDS011;11081;45.946;6.140;2023-04-19T09:58:23;8.68;;;7.13;;
21837;SDS011;11081;45.946;6.140;2023-04-19T10:01:03;11.88;;;8.07;;
21837;SDS011;11081;45.946;6.140;2023-04-19T10:03:42;14.32;;;7.82;;
21837;SDS011;11081;45.946;6.140;2023-04-19T10:06:15;14.60;;;8.88;;
21837;SDS011;11081;45.946;6.140;2023-04-19T10:08:47;14.27;;;8.10;;
21837;SDS011;11081;45.946;6.140;2023-04-19T10:11:16;15.07;;;7.32;;
21837;SDS011;11081;45.946;6.140;2023-04-19T10:13:47;12.77;;;7.68;;
21837;SDS011;11081;45.946;6.140;2023-04-19T10:16:16;9.68;;;6.97;;
21837;SDS011;11081;45.946;6.140;2023-04-19T10:18:46;9.45;;;6.88;;
21837;SDS011;11081;45.946;6.140;2023-04-19T10:21:16;11.35;;;6.88;;
21837;SDS011;11081;45.946;6.140;2023-04-19T10:23:46;10.77;;;8.18;;
21837;SDS011;11081;45.946;6.140;2023-04-19T10:26:15;11.48;;;7.03;;
21837;SDS011;11081;45.946;6.140;2023-04-19T10:28:43;11.40;;;7.25;;
21837;SDS011;11081;45.946;6.140;2023-04-19T10:31:11;11.95;;;7.35;;
21837;SDS011;11081;45.946;6.140;2023-04-19T10:33:40;9.55;;;7.68;;
21837;SDS011;11081;45.946;6.140;2023-04-19T10:36:08;17.35;;;8.02;;
21837;SDS011;11081;45.946;6.140;2023-04-19T10:38:39;15.98;;;8.35;;
21837;SDS011;11081;45.946;6.140;2023-04-19T10:41:09;11.68;;;7.80;;
21837;SDS011;11081;45.946;6.140;2023-04-19T10:43:43;11.63;;;6.68;;
21837;SDS011;11081;45.946;6.140;2023-04-19T10:46:14;8.77;;;6.25;;
21837;SDS011;11081;45.946;6.140;2023-04-19T10:49:02;12.90;;;8.27;;
21837;SDS011;11081;45.946;6.140;2023-04-19T10:51:32;10.82;;;7.80;;
21837;SDS011;11081;45.946;6.140;2023-04-19T10:54:03;10.55;;;7.65;;
21837;SDS011;11081;45.946;6.140;2023-04-19T10:59:30;10.68;;;6.88;;
21837;SDS011;11081;45.946;6.140;2023-04-19T11:02:00;10.13;;;7.03;;
21837;SDS011;11081;45.946;6.140;2023-04-19T11:07:27;10.35;;;7.15;;
21837;SDS011;11081;45.946;6.140;2023-04-19T11:09:56;10.35;;;7.15;;
21837;SDS011;11081;45.946;6.140;2023-04-19T11:12:24;10.35;;;7.57;;
21837;SDS011;11081;45.946;6.140;2023-04-19T11:14:52;11.05;;;7.45;;
21837;SDS011;11081;45.946;6.140;2023-04-19T11:17:23;11.65;;;7.65;;
21837;SDS011;11081;45.946;6.140;2023-04-19T11:19:53;10.48;;;7.55;;
21837;SDS011;11081;45.946;6.140;2023-04-19T11:22:29;7.47;;;6.20;;
21837;SDS011;11081;45.946;6.140;2023-04-19T11:25:07;9.95;;;7.22;;
21837;SDS011;11081;45.946;6.140;2023-04-19T11:27:38;11.15;;;7.95;;
21837;SDS011;11081;45.946;6.140;2023-04-19T11:30:09;10.93;;;7.80;;
21837;SDS011;11081;45.946;6.140;2023-04-19T11:32:43;11.07;;;7.75;;
21837;SDS011;11081;45.946;6.140;2023-04-19T11:35:12;10.77;;;7.18;;
21837;SDS011;11081;45.946;6.140;2023-04-19T11:37:40;9.32;;;6.32;;
21837;SDS011;11081;45.946;6.140;2023-04-19T11:40:12;10.00;;;6.75;;
21837;SDS011;11081;45.946;6.140;2023-04-19T11:42:42;9.40;;;6.80;;
21837;SDS011;11081;45.946;6.140;2023-04-19T11:45:10;10.40;;;7.20;;
21837;SDS011;11081;45.946;6.140;2023-04-19T11:47:53;9.90;;;7.38;;
21837;SDS011;11081;45.946;6.140;2023-04-19T11:50:30;10.18;;;7.28;;
21837;SDS011;11081;45.946;6.140;2023-04-19T11:52:59;11.80;;;6.97;;
21837;SDS011;11081;45.946;6.140;2023-04-19T11:55:37;11.23;;;7.25;;
21837;SDS011;11081;45.946;6.140;2023-04-19T11:58:05;10.40;;;7.72;;
21837;SDS011;11081;45.946;6.140;2023-04-19T12:00:35;10.55;;;7.50;;
21837;SDS011;11081;45.946;6.140;2023-04-19T12:03:03;9.80;;;6.63;;
21837;SDS011;11081;45.946;6.140;2023-04-19T12:05:31;8.63;;;6.60;;
21837;SDS011;11081;45.946;6.140;2023-04-19T12:08:00;11.00;;;6.95;;
21837;SDS011;11081;45.946;6.140;2023-04-19T12:10:30;13.05;;;7.80;;
21837;SDS011;11081;45.946;6.140;2023-04-19T12:13:00;8.90;;;6.72;;
21837;SDS011;11081;45.946;6.140;2023-04-19T12:15:40;10.95;;;7.20;;
21837;SDS011;11081;45.946;6.140;2023-04-19T12:18:09;9.30;;;6.65;;
21837;SDS011;11081;45.946;6.140;2023-04-19T12:20:38;10.05;;;6.22;;
21837;SDS011;11081;45.946;6.140;2023-04-19T12:23:11;8.68;;;6.47;;
21837;SDS011;11081;45.946;6.140;2023-04-19T12:25:39;12.55;;;6.80;;
21837;SDS011;11081;45.946;6.140;2023-04-19T12:28:08;11.40;;;7.60;;
21837;SDS011;11081;45.946;6.140;2023-04-19T12:30:36;9.48;;;6.90;;
21837;SDS011;11081;45.946;6.140;2023-04-19T12:33:05;8.68;;;6.70;;
21837;SDS011;11081;45.946;6.140;2023-04-19T12:35:34;8.98;;;6.75;;
21837;SDS011;11081;45.946;6.140;2023-04-19T12:38:02;10.68;;;7.30;;
21837;SDS011;11081;45.946;6.140;2023-04-19T12:40:30;8.15;;;6.50;;
21837;SDS011;11081;45.946;6.140;2023-04-19T12:42:59;11.27;;;6.20;;
21837;SDS011;11081;45.946;6.140;2023-04-19T12:45:28;9.32;;;5.50;;
21837;SDS011;11081;45.946;6.140;2023-04-19T12:47:58;8.40;;;5.57;;
21837;SDS011;11081;45.946;6.140;2023-04-19T12:50:26;8.68;;;5.35;;
21837;SDS011;11081;45.946;6.140;2023-04-19T12:52:54;5.15;;;3.92;;
21837;SDS011;11081;45.946;6.140;2023-04-19T12:55:22;6.30;;;4.63;;
21837;SDS011;11081;45.946;6.140;2023-04-19T12:57:50;4.53;;;3.80;;
21837;SDS011;11081;45.946;6.140;2023-04-19T13:00:18;4.80;;;3.88;;
21837;SDS011;11081;45.946;6.140;2023-04-19T13:02:47;5.35;;;3.90;;
21837;SDS011;11081;45.946;6.140;2023-04-19T13:05:16;4.97;;;3.78;;
21837;SDS011;11081;45.946;6.140;2023-04-19T13:07:44;4.85;;;3.47;;
21837;SDS011;11081;45.946;6.140;2023-04-19T13:10:12;5.20;;;4.03;;
21837;SDS011;11081;45.946;6.140;2023-04-19T13:12:40;4.40;;;3.50;;
21837;SDS011;11081;45.946;6.140;2023-04-19T13:15:08;4.20;;;3.22;;
21837;SDS011;11081;45.946;6.140;2023-04-19T13:17:37;5.00;;;3.25;;
21837;SDS011;11081;45.946;6.140;2023-04-19T13:20:07;3.75;;;2.97;;
21837;SDS011;11081;45.946;6.140;2023-04-19T13:22:36;4.50;;;3.10;;
21837;SDS011;11081;45.946;6.140;2023-04-19T13:25:04;7.55;;;3.70;;
21837;SDS011;11081;45.946;6.140;2023-04-19T13:27:32;5.22;;;3.35;;
21837;SDS011;11081;45.946;6.140;2023-04-19T13:30:00;4.80;;;2.40;;
21837;SDS011;11081;45.946;6.140;2023-04-19T13:32:28;4.45;;;2.88;;
21837;SDS011;11081;45.946;6.140;2023-04-19T13:34:56;4.13;;;2.25;;
21837;SDS011;11081;45.946;6.140;2023-04-19T13:37:26;4.50;;;3.38;;
21837;SDS011;11081;45.946;6.140;2023-04-19T13:39:54;5.97;;;4.07;;
21837;SDS011;11081;45.946;6.140;2023-04-19T13:42:40;4.65;;;3.72;;
21837;SDS011;11081;45.946;6.140;2023-04-19T13:45:08;5.22;;;3.80;;
21837;SDS011;11081;45.946;6.140;2023-04-19T13:47:36;3.78;;;2.80;;
21837;SDS011;11081;45.946;6.140;2023-04-19T13:50:05;2.88;;;1.95;;
21837;SDS011;11081;45.946;6.140;2023-04-19T13:52:35;3.42;;;1.65;;
21837;SDS011;11081;45.946;6.140;2023-04-19T13:55:03;4.05;;;2.47;;
21837;SDS011;11081;45.946;6.140;2023-04-19T13:57:32;2.42;;;2.08;;
21837;SDS011;11081;45.946;6.140;2023-04-19T14:00:00;3.55;;;2.50;;
21837;SDS011;11081;45.946;6.140;2023-04-19T14:02:32;4.20;;;2.45;;
21837;SDS011;11081;45.946;6.140;2023-04-19T14:05:00;3.58;;;2.85;;
21837;SDS011;11081;45.946;6.140;2023-04-19T14:07:29;4.32;;;3.20;;
21837;SDS011;11081;45.946;6.140;2023-04-19T14:09:59;4.28;;;3.45;;
21837;SDS011;11081;45.946;6.140;2023-04-19T14:12:27;5.75;;;3.92;;
21837;SDS011;11081;45.946;6.140;2023-04-19T14:14:55;6.70;;;4.30;;
21837;SDS011;11081;45.946;6.140;2023-04-19T14:17:23;5.88;;;4.47;;
21837;SDS011;11081;45.946;6.140;2023-04-19T14:19:51;7.22;;;5.05;;
21837;SDS011;11081;45.946;6.140;2023-04-19T14:22:19;5.72;;;4.30;;
21837;SDS011;11081;45.946;6.140;2023-04-19T14:24:47;6.10;;;4.40;;
21837;SDS011;11081;45.946;6.140;2023-04-19T14:27:16;6.07;;;4.68;;
21837;SDS011;11081;45.946;6.140;2023-04-19T14:29:44;6.80;;;4.70;;
21837;SDS011;11081;45.946;6.140;2023-04-19T14:32:12;7.50;;;4.75;;
21837;SDS011;11081;45.946;6.140;2023-04-19T14:34:43;6.85;;;4.55;;
21837;SDS011;11081;45.946;6.140;2023-04-19T14:37:11;6.95;;;4.78;;
21837;SDS011;11081;45.946;6.140;2023-04-19T14:39:39;6.57;;;4.72;;
21837;SDS011;11081;45.946;6.140;2023-04-19T14:42:07;11.82;;;5.22;;
21837;SDS011;11081;45.946;6.140;2023-04-19T14:44:36;10.55;;;5.15;;
21837;SDS011;11081;45.946;6.140;2023-04-19T14:47:04;8.43;;;4.18;;
21837;SDS011;11081;45.946;6.140;2023-04-19T14:49:32;8.45;;;4.32;;
21837;SDS011;11081;45.946;6.140;2023-04-19T14:52:00;5.32;;;4.30;;
21837;SDS011;11081;45.946;6.140;2023-04-19T14:54:29;5.82;;;4.13;;
21837;SDS011;11081;45.946;6.140;2023-04-19T14:56:57;6.05;;;4.47;;
21837;SDS011;11081;45.946;6.140;2023-04-19T14:59:25;5.90;;;4.47;;
21837;SDS011;11081;45.946;6.140;2023-04-19T15:01:56;7.20;;;4.60;;
21837;SDS011;11081;45.946;6.140;2023-04-19T15:04:24;7.22;;;4.95;;
21837;SDS011;11081;45.946;6.140;2023-04-19T15:06:53;9.40;;;5.07;;